sensor_id;sensor_type;location;lat;lon;timestamp;temperature;humidity
3086;DHT22;52812;48.960;9.108;2022-09-03T00:00:50;16.60;99.90
3086;DHT22;52812;48.960;9.108;2022-09-03T00:03:28;16.60;99.90
3086;DHT22;52812;48.960;9.108;2022-09-03T00:11:24;16.60;99.90
3086;DHT22;52812;48.960;9.108;2022-09-03T00:14:08;16.60;99.90
3086;DHT22;52812;48.960;9.108;2022-09-03T00:17:09;16.60;99.90
3086;DHT22;52812;48.960;9.108;2022-09-03T00:19:40;16.60;99.90
3086;DHT22;52812;48.960;9.108;2022-09-03T00:22:12;16.50;99.90
3086;DHT22;52812;48.960;9.108;2022-09-03T00:24:41;16.40;99.90
3086;DHT22;52812;48.960;9.108;2022-09-03T00:27:12;16.50;99.90
3086;DHT22;52812;48.960;9.108;2022-09-03T00:29:48;16.50;99.90
3086;DHT22;52812;48.960;9.108;2022-09-03T00:32:27;16.50;99.90
3086;DHT22;52812;48.960;9.108;2022-09-03T00:34:59;16.40;99.90
3086;DHT22;52812;48.960;9.108;2022-09-03T00:37:26;16.50;99.90
3086;DHT22;52812;48.960;9.108;2022-09-03T00:39:54;16.40;99.90
3086;DHT22;52812;48.960;9.108;2022-09-03T01:00:59;16.10;99.90
3086;DHT22;52812;48.960;9.108;2022-09-03T01:03:42;16.20;99.90
3086;DHT22;52812;48.960;9.108;2022-09-03T01:06:42;16.30;99.90
3086;DHT22;52812;48.960;9.108;2022-09-03T01:09:37;16.30;99.90
3086;DHT22;52812;48.960;9.108;2022-09-03T01:17:22;16.30;99.90
3086;DHT22;52812;48.960;9.108;2022-09-03T01:30:55;16.10;99.90
3086;DHT22;52812;48.960;9.108;2022-09-03T01:33:34;16.20;99.90
3086;DHT22;52812;48.960;9.108;2022-09-03T01:36:15;16.20;99.90
3086;DHT22;52812;48.960;9.108;2022-09-03T01:44:35;16.30;99.90
3086;DHT22;52812;48.960;9.108;2022-09-03T01:58:40;16.30;99.90
3086;DHT22;52812;48.960;9.108;2022-09-03T02:03:58;16.20;99.90
3086;DHT22;52812;48.960;9.108;2022-09-03T02:06:25;16.10;99.90
3086;DHT22;52812;48.960;9.108;2022-09-03T02:08:52;16.10;99.90
3086;DHT22;52812;48.960;9.108;2022-09-03T02:11:18;16.10;99.90
3086;DHT22;52812;48.960;9.108;2022-09-03T02:13:47;15.90;99.90
3086;DHT22;52812;48.960;9.108;2022-09-03T02:16:22;16.10;99.90
3086;DHT22;52812;48.960;9.108;2022-09-03T02:18:53;16.00;99.90
3086;DHT22;52812;48.960;9.108;2022-09-03T02:21:21;16.20;99.90
3086;DHT22;52812;48.960;9.108;2022-09-03T02:23:47;16.00;99.90
3086;DHT22;52812;48.960;9.108;2022-09-03T02:26:17;16.00;99.90
3086;DHT22;52812;48.960;9.108;2022-09-03T02:28:43;16.00;99.90
3086;DHT22;52812;48.960;9.108;2022-09-03T02:31:09;15.90;99.90
3086;DHT22;52812;48.960;9.108;2022-09-03T02:33:39;16.00;99.90
3086;DHT22;52812;48.960;9.108;2022-09-03T02:36:09;16.00;99.90
3086;DHT22;52812;48.960;9.108;2022-09-03T02:38:35;16.00;99.90
3086;DHT22;52812;48.960;9.108;2022-09-03T02:41:00;15.90;99.90
3086;DHT22;52812;48.960;9.108;2022-09-03T02:46:13;15.90;99.90
3086;DHT22;52812;48.960;9.108;2022-09-03T02:48:40;15.90;99.90
3086;DHT22;52812;48.960;9.108;2022-09-03T02:51:05;15.90;99.90
3086;DHT22;52812;48.960;9.108;2022-09-03T02:53:31;16.00;99.90
3086;DHT22;52812;48.960;9.108;2022-09-03T02:55:58;16.00;99.90
3086;DHT22;52812;48.960;9.108;2022-09-03T02:58:24;16.10;99.90
3086;DHT22;52812;48.960;9.108;2022-09-03T03:00:51;16.10;99.90
3086;DHT22;52812;48.960;9.108;2022-09-03T03:03:16;16.10;99.90
3086;DHT22;52812;48.960;9.108;2022-09-03T03:05:54;16.20;99.90
3086;DHT22;52812;48.960;9.108;2022-09-03T03:08:24;16.10;99.90
3086;DHT22;52812;48.960;9.108;2022-09-03T03:10:54;16.10;99.90
3086;DHT22;52812;48.960;9.108;2022-09-03T03:13:23;16.00;99.90
3086;DHT22;52812;48.960;9.108;2022-09-03T03:15:49;16.10;99.90
3086;DHT22;52812;48.960;9.108;2022-09-03T03:18:14;16.20;99.90
3086;DHT22;52812;48.960;9.108;2022-09-03T03:20:42;16.20;99.90
3086;DHT22;52812;48.960;9.108;2022-09-03T03:23:08;16.20;99.90
3086;DHT22;52812;48.960;9.108;2022-09-03T03:25:35;16.20;99.90
3086;DHT22;52812;48.960;9.108;2022-09-03T03:28:01;16.20;99.90
3086;DHT22;52812;48.960;9.108;2022-09-03T03:30:27;16.20;99.90
3086;DHT22;52812;48.960;9.108;2022-09-03T03:32:53;16.20;99.90
3086;DHT22;52812;48.960;9.108;2022-09-03T03:35:19;16.20;99.90
3086;DHT22;52812;48.960;9.108;2022-09-03T03:37:45;16.10;99.90
3086;DHT22;52812;48.960;9.108;2022-09-03T03:40:11;16.20;99.90
3086;DHT22;52812;48.960;9.108;2022-09-03T03:42:37;16.10;99.90
3086;DHT22;52812;48.960;9.108;2022-09-03T03:45:04;16.20;99.90
3086;DHT22;52812;48.960;9.108;2022-09-03T03:47:29;16.20;99.90
3086;DHT22;52812;48.960;9.108;2022-09-03T03:49:58;16.20;99.90
3086;DHT22;52812;48.960;9.108;2022-09-03T03:52:24;16.20;99.90
3086;DHT22;52812;48.960;9.108;2022-09-03T03:54:51;16.20;99.90
3086;DHT22;52812;48.960;9.108;2022-09-03T03:57:17;16.20;99.90
3086;DHT22;52812;48.960;9.108;2022-09-03T03:59:44;16.10;99.90
3086;DHT22;52812;48.960;9.108;2022-09-03T04:02:09;16.20;99.90
3086;DHT22;52812;48.960;9.108;2022-09-03T04:04:35;16.20;99.90
3086;DHT22;52812;48.960;9.108;2022-09-03T04:07:01;16.20;99.90
3086;DHT22;52812;48.960;9.108;2022-09-03T04:09:26;16.20;99.90
3086;DHT22;52812;48.960;9.108;2022-09-03T04:11:52;16.20;99.90
3086;DHT22;52812;48.960;9.108;2022-09-03T04:14:17;16.20;99.90
3086;DHT22;52812;48.960;9.108;2022-09-03T04:16:43;16.10;99.90
3086;DHT22;52812;48.960;9.108;2022-09-03T04:19:11;16.20;99.90
3086;DHT22;52812;48.960;9.108;2022-09-03T04:21:38;16.20;99.90
3086;DHT22;52812;48.960;9.108;2022-09-03T04:24:04;16.20;99.90
3086;DHT22;52812;48.960;9.108;2022-09-03T04:26:31;16.20;99.90
3086;DHT22;52812;48.960;9.108;2022-09-03T04:29:03;16.30;99.90
3086;DHT22;52812;48.960;9.108;2022-09-03T04:31:29;16.30;99.90
3086;DHT22;52812;48.960;9.108;2022-09-03T04:33:55;16.40;99.90
3086;DHT22;52812;48.960;9.108;2022-09-03T04:36:22;16.40;99.90
3086;DHT22;52812;48.960;9.108;2022-09-03T04:38:50;16.30;99.90
3086;DHT22;52812;48.960;9.108;2022-09-03T04:41:22;16.40;99.90
3086;DHT22;52812;48.960;9.108;2022-09-03T04:43:50;16.40;99.90
3086;DHT22;52812;48.960;9.108;2022-09-03T04:46:16;16.40;99.90
3086;DHT22;52812;48.960;9.108;2022-09-03T04:48:42;16.40;99.90
3086;DHT22;52812;48.960;9.108;2022-09-03T04:51:13;16.30;99.90
3086;DHT22;52812;48.960;9.108;2022-09-03T04:53:41;16.40;99.90
3086;DHT22;52812;48.960;9.108;2022-09-03T04:58:38;16.50;99.90
3086;DHT22;52812;48.960;9.108;2022-09-03T05:01:08;16.40;99.90
3086;DHT22;52812;48.960;9.108;2022-09-03T05:03:34;16.40;99.90
3086;DHT22;52812;48.960;9.108;2022-09-03T05:06:02;16.50;99.90
3086;DHT22;52812;48.960;9.108;2022-09-03T05:08:31;16.40;99.90
3086;DHT22;52812;48.960;9.108;2022-09-03T05:10:58;16.50;99.90
3086;DHT22;52812;48.960;9.108;2022-09-03T05:13:24;16.50;99.90
3086;DHT22;52812;48.960;9.108;2022-09-03T05:15:50;16.60;99.90
3086;DHT22;52812;48.960;9.108;2022-09-03T05:18:15;16.60;99.90
3086;DHT22;52812;48.960;9.108;2022-09-03T05:20:41;16.60;99.90
3086;DHT22;52812;48.960;9.108;2022-09-03T05:23:06;16.60;99.90
3086;DHT22;52812;48.960;9.108;2022-09-03T05:25:32;16.80;99.90
3086;DHT22;52812;48.960;9.108;2022-09-03T05:27:58;16.70;99.90
3086;DHT22;52812;48.960;9.108;2022-09-03T05:30:24;16.70;99.90
3086;DHT22;52812;48.960;9.108;2022-09-03T05:32:50;16.80;99.90
3086;DHT22;52812;48.960;9.108;2022-09-03T05:35:16;16.70;99.90
3086;DHT22;52812;48.960;9.108;2022-09-03T05:37:41;16.80;99.90
3086;DHT22;52812;48.960;9.108;2022-09-03T05:40:07;16.80;99.90
3086;DHT22;52812;48.960;9.108;2022-09-03T05:42:36;16.80;99.90
3086;DHT22;52812;48.960;9.108;2022-09-03T05:45:05;16.80;99.90
3086;DHT22;52812;48.960;9.108;2022-09-03T05:47:32;16.90;99.90
3086;DHT22;52812;48.960;9.108;2022-09-03T05:49:58;17.00;99.90
3086;DHT22;52812;48.960;9.108;2022-09-03T05:52:23;17.10;99.90
3086;DHT22;52812;48.960;9.108;2022-09-03T05:54:49;17.20;99.90
3086;DHT22;52812;48.960;9.108;2022-09-03T05:57:14;17.40;99.90
3086;DHT22;52812;48.960;9.108;2022-09-03T05:59:40;17.70;99.90
3086;DHT22;52812;48.960;9.108;2022-09-03T06:02:05;18.40;99.90
3086;DHT22;52812;48.960;9.108;2022-09-03T06:04:31;19.30;99.90
3086;DHT22;52812;48.960;9.108;2022-09-03T06:06:57;19.50;99.90
3086;DHT22;52812;48.960;9.108;2022-09-03T06:09:22;19.30;99.90
3086;DHT22;52812;48.960;9.108;2022-09-03T06:11:48;19.20;99.90
3086;DHT22;52812;48.960;9.108;2022-09-03T06:14:14;18.80;99.90
3086;DHT22;52812;48.960;9.108;2022-09-03T06:16:46;19.20;99.90
3086;DHT22;52812;48.960;9.108;2022-09-03T06:19:14;20.10;99.90
3086;DHT22;52812;48.960;9.108;2022-09-03T06:21:41;20.30;99.90
3086;DHT22;52812;48.960;9.108;2022-09-03T06:24:09;20.10;99.90
3086;DHT22;52812;48.960;9.108;2022-09-03T06:26:36;19.90;99.90
3086;DHT22;52812;48.960;9.108;2022-09-03T06:29:02;19.60;99.90
3086;DHT22;52812;48.960;9.108;2022-09-03T06:31:28;19.40;99.90
3086;DHT22;52812;48.960;9.108;2022-09-03T06:33:54;19.20;99.90
3086;DHT22;52812;48.960;9.108;2022-09-03T06:36:22;19.10;99.90
3086;DHT22;52812;48.960;9.108;2022-09-03T06:38:51;18.90;99.90
3086;DHT22;52812;48.960;9.108;2022-09-03T06:41:19;18.80;99.90
3086;DHT22;52812;48.960;9.108;2022-09-03T06:43:46;18.70;99.90
3086;DHT22;52812;48.960;9.108;2022-09-03T06:46:17;18.60;99.90
3086;DHT22;52812;48.960;9.108;2022-09-03T06:48:43;18.60;99.90
3086;DHT22;52812;48.960;9.108;2022-09-03T06:51:12;18.60;99.90
3086;DHT22;52812;48.960;9.108;2022-09-03T06:53:44;18.70;99.90
3086;DHT22;52812;48.960;9.108;2022-09-03T06:56:12;18.70;99.90
3086;DHT22;52812;48.960;9.108;2022-09-03T06:58:41;18.80;99.90
3086;DHT22;52812;48.960;9.108;2022-09-03T07:01:23;18.80;99.90
3086;DHT22;52812;48.960;9.108;2022-09-03T07:03:58;18.90;99.90
3086;DHT22;52812;48.960;9.108;2022-09-03T07:06:27;18.90;99.90
3086;DHT22;52812;48.960;9.108;2022-09-03T07:08:53;19.00;99.90
3086;DHT22;52812;48.960;9.108;2022-09-03T07:11:21;18.90;99.90
3086;DHT22;52812;48.960;9.108;2022-09-03T07:13:50;18.90;99.90
3086;DHT22;52812;48.960;9.108;2022-09-03T07:16:17;18.90;99.90
3086;DHT22;52812;48.960;9.108;2022-09-03T07:18:43;18.90;99.90
3086;DHT22;52812;48.960;9.108;2022-09-03T07:21:11;18.90;99.90
3086;DHT22;52812;48.960;9.108;2022-09-03T07:23:37;18.90;99.90
3086;DHT22;52812;48.960;9.108;2022-09-03T07:26:06;18.90;99.90
3086;DHT22;52812;48.960;9.108;2022-09-03T07:28:33;18.90;99.90
3086;DHT22;52812;48.960;9.108;2022-09-03T07:31:03;19.00;99.90
3086;DHT22;52812;48.960;9.108;2022-09-03T07:33:30;19.10;99.90
3086;DHT22;52812;48.960;9.108;2022-09-03T07:36:05;19.20;99.90
3086;DHT22;52812;48.960;9.108;2022-09-03T07:38:32;19.10;99.90
3086;DHT22;52812;48.960;9.108;2022-09-03T07:40:59;19.20;99.90
3086;DHT22;52812;48.960;9.108;2022-09-03T07:43:26;19.30;99.90
3086;DHT22;52812;48.960;9.108;2022-09-03T07:45:54;19.50;99.90
3086;DHT22;52812;48.960;9.108;2022-09-03T07:48:21;19.60;99.90
3086;DHT22;52812;48.960;9.108;2022-09-03T07:50:47;19.80;99.90
3086;DHT22;52812;48.960;9.108;2022-09-03T07:53:16;19.90;99.90
3086;DHT22;52812;48.960;9.108;2022-09-03T07:55:42;19.90;99.90
3086;DHT22;52812;48.960;9.108;2022-09-03T07:58:08;20.10;99.90
3086;DHT22;52812;48.960;9.108;2022-09-03T08:00:36;20.30;99.90
3086;DHT22;52812;48.960;9.108;2022-09-03T08:03:01;20.40;99.90
3086;DHT22;52812;48.960;9.108;2022-09-03T08:05:32;20.40;99.90
3086;DHT22;52812;48.960;9.108;2022-09-03T08:08:04;20.40;99.90
3086;DHT22;52812;48.960;9.108;2022-09-03T08:10:36;20.50;99.90
3086;DHT22;52812;48.960;9.108;2022-09-03T08:13:03;20.70;99.90
3086;DHT22;52812;48.960;9.108;2022-09-03T08:15:32;20.90;99.90
3086;DHT22;52812;48.960;9.108;2022-09-03T08:17:58;20.90;99.90
3086;DHT22;52812;48.960;9.108;2022-09-03T08:20:25;20.90;99.90
3086;DHT22;52812;48.960;9.108;2022-09-03T08:23:01;21.00;99.90
3086;DHT22;52812;48.960;9.108;2022-09-03T08:25:27;20.60;99.90
3086;DHT22;52812;48.960;9.108;2022-09-03T08:27:53;20.30;99.90
3086;DHT22;52812;48.960;9.108;2022-09-03T08:30:18;20.10;99.90
3086;DHT22;52812;48.960;9.108;2022-09-03T08:32:46;20.00;99.90
3086;DHT22;52812;48.960;9.108;2022-09-03T08:35:11;19.90;99.90
3086;DHT22;52812;48.960;9.108;2022-09-03T08:37:37;19.90;99.90
3086;DHT22;52812;48.960;9.108;2022-09-03T08:40:03;19.90;99.90
3086;DHT22;52812;48.960;9.108;2022-09-03T08:45:09;19.80;99.90
3086;DHT22;52812;48.960;9.108;2022-09-03T08:48:04;19.70;99.90
3086;DHT22;52812;48.960;9.108;2022-09-03T08:50:33;19.60;99.90
3086;DHT22;52812;48.960;9.108;2022-09-03T08:55:48;19.60;99.90
3086;DHT22;52812;48.960;9.108;2022-09-03T08:58:20;19.70;99.90
3086;DHT22;52812;48.960;9.108;2022-09-03T09:09:26;20.50;99.90
3086;DHT22;52812;48.960;9.108;2022-09-03T09:15:09;20.90;99.90
3086;DHT22;52812;48.960;9.108;2022-09-03T09:17:52;21.10;99.90
3086;DHT22;52812;48.960;9.108;2022-09-03T09:20:39;21.40;99.90
3086;DHT22;52812;48.960;9.108;2022-09-03T09:23:12;21.50;99.90
3086;DHT22;52812;48.960;9.108;2022-09-03T09:25:48;21.40;99.90
3086;DHT22;52812;48.960;9.108;2022-09-03T09:28:22;21.40;99.90
3086;DHT22;52812;48.960;9.108;2022-09-03T09:30:51;21.20;99.90
3086;DHT22;52812;48.960;9.108;2022-09-03T09:33:18;21.50;99.90
3086;DHT22;52812;48.960;9.108;2022-09-03T09:35:45;21.80;99.90
3086;DHT22;52812;48.960;9.108;2022-09-03T09:38:12;21.90;99.90
3086;DHT22;52812;48.960;9.108;2022-09-03T09:40:43;21.90;99.90
3086;DHT22;52812;48.960;9.108;2022-09-03T09:43:14;22.00;99.90
3086;DHT22;52812;48.960;9.108;2022-09-03T09:45:46;22.10;99.90
3086;DHT22;52812;48.960;9.108;2022-09-03T09:50:42;22.10;99.90
3086;DHT22;52812;48.960;9.108;2022-09-03T09:53:09;22.20;99.90
3086;DHT22;52812;48.960;9.108;2022-09-03T09:55:54;22.40;99.90
3086;DHT22;52812;48.960;9.108;2022-09-03T09:58:22;22.50;99.90
3086;DHT22;52812;48.960;9.108;2022-09-03T10:01:11;22.70;99.90
3086;DHT22;52812;48.960;9.108;2022-09-03T10:03:54;22.60;99.90
3086;DHT22;52812;48.960;9.108;2022-09-03T10:06:23;23.00;99.90
3086;DHT22;52812;48.960;9.108;2022-09-03T10:09:16;23.50;99.90
3086;DHT22;52812;48.960;9.108;2022-09-03T10:14:49;23.20;99.90
3086;DHT22;52812;48.960;9.108;2022-09-03T10:23:26;23.10;99.90
3086;DHT22;52812;48.960;9.108;2022-09-03T10:26:14;23.30;99.90
3086;DHT22;52812;48.960;9.108;2022-09-03T10:28:42;23.50;99.90
3086;DHT22;52812;48.960;9.108;2022-09-03T10:34:31;23.90;99.90
3086;DHT22;52812;48.960;9.108;2022-09-03T10:42:25;24.00;99.90
3086;DHT22;52812;48.960;9.108;2022-09-03T10:45:12;23.70;99.90
3086;DHT22;52812;48.960;9.108;2022-09-03T10:50:56;24.00;99.90
3086;DHT22;52812;48.960;9.108;2022-09-03T10:53:43;23.60;99.90
3086;DHT22;52812;48.960;9.108;2022-09-03T11:06:50;23.60;99.90
3086;DHT22;52812;48.960;9.108;2022-09-03T11:09:28;23.60;99.90
3086;DHT22;52812;48.960;9.108;2022-09-03T11:12:07;23.60;99.90
3086;DHT22;52812;48.960;9.108;2022-09-03T11:14:43;23.60;99.90
3086;DHT22;52812;48.960;9.108;2022-09-03T11:17:28;23.60;99.90
3086;DHT22;52812;48.960;9.108;2022-09-03T11:19:59;23.70;99.90
3086;DHT22;52812;48.960;9.108;2022-09-03T11:22:29;23.60;99.90
3086;DHT22;52812;48.960;9.108;2022-09-03T11:24:58;23.80;99.90
3086;DHT22;52812;48.960;9.108;2022-09-03T11:30:10;23.80;99.90
3086;DHT22;52812;48.960;9.108;2022-09-03T11:32:51;23.70;99.90
3086;DHT22;52812;48.960;9.108;2022-09-03T11:38:03;23.70;99.90
3086;DHT22;52812;48.960;9.108;2022-09-03T11:40:41;23.80;99.90
3086;DHT22;52812;48.960;9.108;2022-09-03T11:48:47;24.10;99.90
3086;DHT22;52812;48.960;9.108;2022-09-03T11:51:34;24.10;99.90
3086;DHT22;52812;48.960;9.108;2022-09-03T11:54:05;24.00;99.90
3086;DHT22;52812;48.960;9.108;2022-09-03T11:56:33;24.10;99.90
3086;DHT22;52812;48.960;9.108;2022-09-03T11:59:00;24.20;99.90
3086;DHT22;52812;48.960;9.108;2022-09-03T12:01:27;24.10;99.90
3086;DHT22;52812;48.960;9.108;2022-09-03T12:03:58;24.20;99.90
3086;DHT22;52812;48.960;9.108;2022-09-03T12:17:38;24.20;99.90
3086;DHT22;52812;48.960;9.108;2022-09-03T12:20:13;24.20;99.90
3086;DHT22;52812;48.960;9.108;2022-09-03T12:22:40;24.00;99.90
3086;DHT22;52812;48.960;9.108;2022-09-03T12:25:13;23.80;99.90
3086;DHT22;52812;48.960;9.108;2022-09-03T12:27:42;23.70;99.90
3086;DHT22;52812;48.960;9.108;2022-09-03T12:30:21;23.60;99.90
3086;DHT22;52812;48.960;9.108;2022-09-03T12:32:47;23.50;99.90
3086;DHT22;52812;48.960;9.108;2022-09-03T12:35:23;23.40;99.90
3086;DHT22;52812;48.960;9.108;2022-09-03T12:37:51;23.30;99.90
3086;DHT22;52812;48.960;9.108;2022-09-03T12:40:23;23.20;99.90
3086;DHT22;52812;48.960;9.108;2022-09-03T12:42:51;23.10;99.90
3086;DHT22;52812;48.960;9.108;2022-09-03T12:45:24;22.90;99.90
3086;DHT22;52812;48.960;9.108;2022-09-03T12:47:51;22.90;99.90
3086;DHT22;52812;48.960;9.108;2022-09-03T12:50:22;22.80;99.90
3086;DHT22;52812;48.960;9.108;2022-09-03T12:52:58;22.60;99.90
3086;DHT22;52812;48.960;9.108;2022-09-03T12:58:06;22.10;99.90
3086;DHT22;52812;48.960;9.108;2022-09-03T13:00:36;21.90;99.90
3086;DHT22;52812;48.960;9.108;2022-09-03T13:03:14;21.70;99.90
3086;DHT22;52812;48.960;9.108;2022-09-03T13:05:47;21.50;99.90
3086;DHT22;52812;48.960;9.108;2022-09-03T13:08:20;21.00;99.90
3086;DHT22;52812;48.960;9.108;2022-09-03T13:10:51;20.70;99.90
3086;DHT22;52812;48.960;9.108;2022-09-03T13:13:24;20.50;99.90
3086;DHT22;52812;48.960;9.108;2022-09-03T13:19:00;20.10;99.90
3086;DHT22;52812;48.960;9.108;2022-09-03T13:30:01;19.70;99.90
3086;DHT22;52812;48.960;9.108;2022-09-03T13:41:06;20.40;99.90
3086;DHT22;52812;48.960;9.108;2022-09-03T13:43:41;20.60;99.90
3086;DHT22;52812;48.960;9.108;2022-09-03T13:48:47;20.80;99.90
3086;DHT22;52812;48.960;9.108;2022-09-03T13:51:42;20.90;99.90
3086;DHT22;52812;48.960;9.108;2022-09-03T13:54:18;20.80;99.90
3086;DHT22;52812;48.960;9.108;2022-09-03T13:57:04;20.80;99.90
3086;DHT22;52812;48.960;9.108;2022-09-03T13:59:53;20.80;99.90
3086;DHT22;52812;48.960;9.108;2022-09-03T14:07:58;21.00;99.90
3086;DHT22;52812;48.960;9.108;2022-09-03T14:17:15;20.90;99.90
3086;DHT22;52812;48.960;9.108;2022-09-03T14:19:56;20.80;99.90
3086;DHT22;52812;48.960;9.108;2022-09-03T14:22:28;20.80;99.90
3086;DHT22;52812;48.960;9.108;2022-09-03T14:25:00;20.80;99.90
3086;DHT22;52812;48.960;9.108;2022-09-03T14:27:31;20.70;99.90
3086;DHT22;52812;48.960;9.108;2022-09-03T14:30:05;20.60;99.90
3086;DHT22;52812;48.960;9.108;2022-09-03T14:40:24;20.60;99.90
3086;DHT22;52812;48.960;9.108;2022-09-03T14:48:40;20.60;99.90
3086;DHT22;52812;48.960;9.108;2022-09-03T15:00:13;20.40;99.90
3086;DHT22;52812;48.960;9.108;2022-09-03T15:08:45;20.30;99.90
3086;DHT22;52812;48.960;9.108;2022-09-03T15:11:21;20.10;99.90
3086;DHT22;52812;48.960;9.108;2022-09-03T15:24:39;19.80;99.90
3086;DHT22;52812;48.960;9.108;2022-09-03T15:30:16;19.80;99.90
3086;DHT22;52812;48.960;9.108;2022-09-03T15:33:06;19.90;99.90
3086;DHT22;52812;48.960;9.108;2022-09-03T15:35:59;20.00;99.90
3086;DHT22;52812;48.960;9.108;2022-09-03T15:38:39;20.10;99.90
3086;DHT22;52812;48.960;9.108;2022-09-03T15:41:33;20.10;99.90
3086;DHT22;52812;48.960;9.108;2022-09-03T15:43:59;20.10;99.90
3086;DHT22;52812;48.960;9.108;2022-09-03T15:49:53;20.10;99.90
3086;DHT22;52812;48.960;9.108;2022-09-03T15:52:37;20.20;99.90
3086;DHT22;52812;48.960;9.108;2022-09-03T15:57:48;20.30;99.90
3086;DHT22;52812;48.960;9.108;2022-09-03T16:00:19;20.30;99.90
3086;DHT22;52812;48.960;9.108;2022-09-03T16:03:10;20.20;99.90
3086;DHT22;52812;48.960;9.108;2022-09-03T16:05:46;20.30;99.90
3086;DHT22;52812;48.960;9.108;2022-09-03T16:08:18;20.20;99.90
3086;DHT22;52812;48.960;9.108;2022-09-03T16:16:56;20.20;99.90
3086;DHT22;52812;48.960;9.108;2022-09-03T16:19:37;20.10;99.90
3086;DHT22;52812;48.960;9.108;2022-09-03T16:25:08;20.00;99.90
3086;DHT22;52812;48.960;9.108;2022-09-03T16:34:44;19.90;99.90
3086;DHT22;52812;48.960;9.108;2022-09-03T16:40:00;19.90;99.90
3086;DHT22;52812;48.960;9.108;2022-09-03T16:42:41;19.90;99.90
3086;DHT22;52812;48.960;9.108;2022-09-03T16:51:04;19.90;99.90
3086;DHT22;52812;48.960;9.108;2022-09-03T16:53:41;19.90;99.90
3086;DHT22;52812;48.960;9.108;2022-09-03T16:56:45;20.00;99.90
3086;DHT22;52812;48.960;9.108;2022-09-03T16:59:46;20.00;99.90
3086;DHT22;52812;48.960;9.108;2022-09-03T17:05:12;20.00;99.90
3086;DHT22;52812;48.960;9.108;2022-09-03T17:13:55;20.10;99.90
3086;DHT22;52812;48.960;9.108;2022-09-03T17:16:45;20.10;99.90
3086;DHT22;52812;48.960;9.108;2022-09-03T17:24:52;19.80;99.90
3086;DHT22;52812;48.960;9.108;2022-09-03T17:27:49;19.70;99.90
3086;DHT22;52812;48.960;9.108;2022-09-03T17:33:06;19.60;99.90
3086;DHT22;52812;48.960;9.108;2022-09-03T17:35:56;19.50;99.90
3086;DHT22;52812;48.960;9.108;2022-09-03T17:44:13;19.40;99.90
3086;DHT22;52812;48.960;9.108;2022-09-03T17:49:57;19.30;99.90
3086;DHT22;52812;48.960;9.108;2022-09-03T17:52:38;19.30;99.90
3086;DHT22;52812;48.960;9.108;2022-09-03T17:57:51;19.20;99.90
3086;DHT22;52812;48.960;9.108;2022-09-03T18:03:48;19.10;99.90
3086;DHT22;52812;48.960;9.108;2022-09-03T18:06:33;19.00;99.90
3086;DHT22;52812;48.960;9.108;2022-09-03T18:11:36;18.80;99.90
3086;DHT22;52812;48.960;9.108;2022-09-03T18:14:08;18.70;99.90
3086;DHT22;52812;48.960;9.108;2022-09-03T18:16:47;18.70;99.90
3086;DHT22;52812;48.960;9.108;2022-09-03T18:19:31;18.70;99.90
3086;DHT22;52812;48.960;9.108;2022-09-03T18:22:20;18.60;99.90
3086;DHT22;52812;48.960;9.108;2022-09-03T18:25:05;18.60;99.90
3086;DHT22;52812;48.960;9.108;2022-09-03T18:27:58;18.50;99.90
3086;DHT22;52812;48.960;9.108;2022-09-03T18:30:43;18.50;99.90
3086;DHT22;52812;48.960;9.108;2022-09-03T18:33:28;18.40;99.90
3086;DHT22;52812;48.960;9.108;2022-09-03T18:36:12;18.40;99.90
3086;DHT22;52812;48.960;9.108;2022-09-03T18:39:23;18.40;99.90
3086;DHT22;52812;48.960;9.108;2022-09-03T18:42:34;18.30;99.90
3086;DHT22;52812;48.960;9.108;2022-09-03T18:45:37;18.20;99.90
3086;DHT22;52812;48.960;9.108;2022-09-03T18:48:32;18.20;99.90
3086;DHT22;52812;48.960;9.108;2022-09-03T18:57:42;18.20;99.90
3086;DHT22;52812;48.960;9.108;2022-09-03T19:00:33;18.20;99.90
3086;DHT22;52812;48.960;9.108;2022-09-03T19:03:46;18.20;99.90
3086;DHT22;52812;48.960;9.108;2022-09-03T19:07:07;18.10;99.90
3086;DHT22;52812;48.960;9.108;2022-09-03T19:09:56;18.00;99.90
3086;DHT22;52812;48.960;9.108;2022-09-03T19:13:07;18.10;99.90
3086;DHT22;52812;48.960;9.108;2022-09-03T19:15:58;18.10;99.90
3086;DHT22;52812;48.960;9.108;2022-09-03T19:19:05;18.00;99.90
3086;DHT22;52812;48.960;9.108;2022-09-03T19:21:55;18.00;99.90
3086;DHT22;52812;48.960;9.108;2022-09-03T19:24:43;17.90;99.90
3086;DHT22;52812;48.960;9.108;2022-09-03T19:34:04;17.80;99.90
3086;DHT22;52812;48.960;9.108;2022-09-03T19:46:36;17.60;99.90
3086;DHT22;52812;48.960;9.108;2022-09-03T19:52:54;17.50;99.90
3086;DHT22;52812;48.960;9.108;2022-09-03T19:55:51;17.40;99.90
3086;DHT22;52812;48.960;9.108;2022-09-03T19:58:40;17.40;99.90
3086;DHT22;52812;48.960;9.108;2022-09-03T20:01:36;17.30;99.90
3086;DHT22;52812;48.960;9.108;2022-09-03T20:04:38;17.30;99.90
3086;DHT22;52812;48.960;9.108;2022-09-03T20:07:24;17.20;99.90
3086;DHT22;52812;48.960;9.108;2022-09-03T20:10:11;17.20;99.90
3086;DHT22;52812;48.960;9.108;2022-09-03T20:13:13;17.20;99.90
3086;DHT22;52812;48.960;9.108;2022-09-03T20:26:50;17.30;99.90
3086;DHT22;52812;48.960;9.108;2022-09-03T20:34:54;17.40;99.90
3086;DHT22;52812;48.960;9.108;2022-09-03T20:37:44;17.40;99.90
3086;DHT22;52812;48.960;9.108;2022-09-03T20:40:27;17.50;99.90
3086;DHT22;52812;48.960;9.108;2022-09-03T20:43:24;17.50;99.90
3086;DHT22;52812;48.960;9.108;2022-09-03T20:51:13;17.40;99.90
3086;DHT22;52812;48.960;9.108;2022-09-03T21:01:51;17.30;99.90
3086;DHT22;52812;48.960;9.108;2022-09-03T21:07:25;17.30;99.90
3086;DHT22;52812;48.960;9.108;2022-09-03T21:15:00;17.30;99.90
3086;DHT22;52812;48.960;9.108;2022-09-03T21:20:10;17.20;99.90
3086;DHT22;52812;48.960;9.108;2022-09-03T21:25:22;17.20;99.90
3086;DHT22;52812;48.960;9.108;2022-09-03T21:27:54;17.20;99.90
3086;DHT22;52812;48.960;9.108;2022-09-03T21:30:20;17.20;99.90
3086;DHT22;52812;48.960;9.108;2022-09-03T21:32:55;17.10;99.90
3086;DHT22;52812;48.960;9.108;2022-09-03T21:35:29;17.00;99.90
3086;DHT22;52812;48.960;9.108;2022-09-03T21:38:11;16.90;99.90
3086;DHT22;52812;48.960;9.108;2022-09-03T21:40:44;16.90;99.90
3086;DHT22;52812;48.960;9.108;2022-09-03T21:43:19;16.80;99.90
3086;DHT22;52812;48.960;9.108;2022-09-03T21:45:59;16.90;99.90
3086;DHT22;52812;48.960;9.108;2022-09-03T21:48:45;16.80;99.90
3086;DHT22;52812;48.960;9.108;2022-09-03T21:51:16;16.70;99.90
3086;DHT22;52812;48.960;9.108;2022-09-03T21:53:52;16.60;99.90
3086;DHT22;52812;48.960;9.108;2022-09-03T22:02:25;16.50;99.90
3086;DHT22;52812;48.960;9.108;2022-09-03T22:04:53;16.50;99.90
3086;DHT22;52812;48.960;9.108;2022-09-03T22:12:48;16.50;99.90
3086;DHT22;52812;48.960;9.108;2022-09-03T22:15:17;16.40;99.90
3086;DHT22;52812;48.960;9.108;2022-09-03T22:17:50;16.30;99.90
3086;DHT22;52812;48.960;9.108;2022-09-03T22:20:20;16.30;99.90
3086;DHT22;52812;48.960;9.108;2022-09-03T22:22:58;16.20;99.90
3086;DHT22;52812;48.960;9.108;2022-09-03T22:25:53;16.20;99.90
3086;DHT22;52812;48.960;9.108;2022-09-03T22:28:29;16.10;99.90
3086;DHT22;52812;48.960;9.108;2022-09-03T22:31:03;16.10;99.90